sensor_id;sensor_type;location;lat;lon;timestamp;P1;durP1;ratioP1;P2;durP2;ratioP2
14052;SDS011;7101;51.600;7.310;2023-05-15T00:01:14;8.02;;;6.25;;
14052;SDS011;7101;51.600;7.310;2023-05-15T00:03:41;6.93;;;6.22;;
14052;SDS011;7101;51.600;7.310;2023-05-15T00:06:09;6.85;;;5.53;;
14052;SDS011;7101;51.600;7.310;2023-05-15T00:08:36;7.53;;;6.15;;
14052;SDS011;7101;51.600;7.310;2023-05-15T00:11:04;7.65;;;6.50;;
14052;SDS011;7101;51.600;7.310;2023-05-15T00:13:31;8.05;;;7.10;;
14052;SDS011;7101;51.600;7.310;2023-05-15T00:15:58;8.00;;;7.30;;
14052;SDS011;7101;51.600;7.310;2023-05-15T00:18:27;8.07;;;7.22;;
14052;SDS011;7101;51.600;7.310;2023-05-15T00:20:54;7.88;;;7.07;;
14052;SDS011;7101;51.600;7.310;2023-05-15T00:23:22;11.80;;;7.13;;
14052;SDS011;7101;51.600;7.310;2023-05-15T00:25:49;8.43;;;7.60;;
14052;SDS011;7101;51.600;7.310;2023-05-15T00:28:16;8.05;;;7.28;;
14052;SDS011;7101;51.600;7.310;2023-05-15T00:30:43;9.05;;;7.20;;
14052;SDS011;7101;51.600;7.310;2023-05-15T00:33:09;8.10;;;7.40;;
14052;SDS011;7101;51.600;7.310;2023-05-15T00:35:37;9.57;;;8.57;;
14052;SDS011;7101;51.600;7.310;2023-05-15T00:38:04;8.23;;;7.25;;
14052;SDS011;7101;51.600;7.310;2023-05-15T00:40:33;9.13;;;7.65;;
14052;SDS011;7101;51.600;7.310;2023-05-15T00:43:01;8.10;;;7.28;;
14052;SDS011;7101;51.600;7.310;2023-05-15T00:45:30;8.77;;;7.88;;
14052;SDS011;7101;51.600;7.310;2023-05-15T00:47:58;11.90;;;8.65;;
14052;SDS011;7101;51.600;7.310;2023-05-15T00:50:26;10.57;;;9.10;;
14052;SDS011;7101;51.600;7.310;2023-05-15T00:52:54;9.65;;;8.48;;
14052;SDS011;7101;51.600;7.310;2023-05-15T00:55:21;9.10;;;8.20;;
14052;SDS011;7101;51.600;7.310;2023-05-15T00:57:51;8.77;;;7.88;;
14052;SDS011;7101;51.600;7.310;2023-05-15T01:00:19;9.50;;;7.72;;
14052;SDS011;7101;51.600;7.310;2023-05-15T01:02:47;9.75;;;8.55;;
14052;SDS011;7101;51.600;7.310;2023-05-15T01:05:14;9.80;;;8.80;;
14052;SDS011;7101;51.600;7.310;2023-05-15T01:07:43;9.88;;;8.98;;
14052;SDS011;7101;51.600;7.310;2023-05-15T01:10:18;10.00;;;8.88;;
14052;SDS011;7101;51.600;7.310;2023-05-15T01:12:47;10.95;;;9.35;;
14052;SDS011;7101;51.600;7.310;2023-05-15T01:15:19;11.02;;;9.57;;
14052;SDS011;7101;51.600;7.310;2023-05-15T01:17:46;11.10;;;9.93;;
14052;SDS011;7101;51.600;7.310;2023-05-15T01:20:14;12.02;;;9.32;;
14052;SDS011;7101;51.600;7.310;2023-05-15T01:22:46;11.57;;;9.40;;
14052;SDS011;7101;51.600;7.310;2023-05-15T01:25:32;11.63;;;8.73;;
14052;SDS011;7101;51.600;7.310;2023-05-15T01:28:12;9.93;;;8.93;;
14052;SDS011;7101;51.600;7.310;2023-05-15T01:30:44;10.25;;;9.02;;
14052;SDS011;7101;51.600;7.310;2023-05-15T01:33:17;12.38;;;9.55;;
14052;SDS011;7101;51.600;7.310;2023-05-15T01:35:49;11.68;;;9.80;;
14052;SDS011;7101;51.600;7.310;2023-05-15T01:38:23;11.60;;;9.98;;
14052;SDS011;7101;51.600;7.310;2023-05-15T01:40:56;10.90;;;9.77;;
14052;SDS011;7101;51.600;7.310;2023-05-15T01:43:30;12.15;;;10.38;;
14052;SDS011;7101;51.600;7.310;2023-05-15T01:45:58;11.45;;;10.25;;
14052;SDS011;7101;51.600;7.310;2023-05-15T01:48:26;11.30;;;9.70;;
14052;SDS011;7101;51.600;7.310;2023-05-15T01:50:55;11.35;;;9.98;;
14052;SDS011;7101;51.600;7.310;2023-05-15T01:53:25;12.52;;;10.48;;
14052;SDS011;7101;51.600;7.310;2023-05-15T01:55:52;12.88;;;10.10;;
14052;SDS011;7101;51.600;7.310;2023-05-15T01:58:20;12.95;;;9.68;;
14052;SDS011;7101;51.600;7.310;2023-05-15T02:00:51;10.90;;;9.68;;
14052;SDS011;7101;51.600;7.310;2023-05-15T02:03:19;10.90;;;9.57;;
14052;SDS011;7101;51.600;7.310;2023-05-15T02:05:46;11.52;;;9.60;;
14052;SDS011;7101;51.600;7.310;2023-05-15T02:08:13;13.07;;;10.00;;
14052;SDS011;7101;51.600;7.310;2023-05-15T02:10:40;11.27;;;9.60;;
14052;SDS011;7101;51.600;7.310;2023-05-15T02:13:08;10.48;;;9.38;;
14052;SDS011;7101;51.600;7.310;2023-05-15T02:15:36;11.45;;;10.25;;
14052;SDS011;7101;51.600;7.310;2023-05-15T02:18:05;12.45;;;9.88;;
14052;SDS011;7101;51.600;7.310;2023-05-15T02:20:33;11.23;;;10.20;;
14052;SDS011;7101;51.600;7.310;2023-05-15T02:23:00;11.48;;;10.27;;
14052;SDS011;7101;51.600;7.310;2023-05-15T02:25:29;12.75;;;11.40;;
14052;SDS011;7101;51.600;7.310;2023-05-15T02:28:00;12.05;;;10.82;;
14052;SDS011;7101;51.600;7.310;2023-05-15T02:30:31;12.13;;;10.25;;
14052;SDS011;7101;51.600;7.310;2023-05-15T02:33:10;11.95;;;10.40;;
14052;SDS011;7101;51.600;7.310;2023-05-15T02:35:42;11.63;;;10.48;;
14052;SDS011;7101;51.600;7.310;2023-05-15T02:38:15;16.13;;;11.20;;
14052;SDS011;7101;51.600;7.310;2023-05-15T02:40:44;12.52;;;11.30;;
14052;SDS011;7101;51.600;7.310;2023-05-15T02:43:13;13.15;;;11.40;;
14052;SDS011;7101;51.600;7.310;2023-05-15T02:45:44;11.90;;;10.65;;
14052;SDS011;7101;51.600;7.310;2023-05-15T02:48:14;12.10;;;10.85;;
14052;SDS011;7101;51.600;7.310;2023-05-15T02:50:41;12.57;;;11.27;;
14052;SDS011;7101;51.600;7.310;2023-05-15T02:53:14;13.88;;;11.63;;
14052;SDS011;7101;51.600;7.310;2023-05-15T02:55:41;14.60;;;13.15;;
14052;SDS011;7101;51.600;7.310;2023-05-15T02:58:08;13.05;;;11.75;;
14052;SDS011;7101;51.600;7.310;2023-05-15T03:00:35;14.75;;;11.65;;
14052;SDS011;7101;51.600;7.310;2023-05-15T03:03:02;14.45;;;11.85;;
14052;SDS011;7101;51.600;7.310;2023-05-15T03:05:32;15.20;;;13.43;;
14052;SDS011;7101;51.600;7.310;2023-05-15T03:07:58;16.17;;;14.48;;
14052;SDS011;7101;51.600;7.310;2023-05-15T03:10:33;15.88;;;13.82;;
14052;SDS011;7101;51.600;7.310;2023-05-15T03:12:59;16.02;;;14.32;;
14052;SDS011;7101;51.600;7.310;2023-05-15T03:15:28;17.30;;;13.70;;
14052;SDS011;7101;51.600;7.310;2023-05-15T03:17:56;19.90;;;16.00;;
14052;SDS011;7101;51.600;7.310;2023-05-15T03:20:24;22.55;;;16.90;;
14052;SDS011;7101;51.600;7.310;2023-05-15T03:22:54;20.58;;;16.60;;
14052;SDS011;7101;51.600;7.310;2023-05-15T03:25:22;18.02;;;15.65;;
14052;SDS011;7101;51.600;7.310;2023-05-15T03:27:49;20.50;;;16.67;;
14052;SDS011;7101;51.600;7.310;2023-05-15T03:30:17;22.27;;;18.15;;
14052;SDS011;7101;51.600;7.310;2023-05-15T03:32:44;22.67;;;16.27;;
14052;SDS011;7101;51.600;7.310;2023-05-15T03:35:11;20.63;;;17.48;;
14052;SDS011;7101;51.600;7.310;2023-05-15T03:37:39;23.25;;;18.90;;
14052;SDS011;7101;51.600;7.310;2023-05-15T03:40:09;20.52;;;18.17;;
14052;SDS011;7101;51.600;7.310;2023-05-15T03:42:36;24.08;;;20.35;;
14052;SDS011;7101;51.600;7.310;2023-05-15T03:45:04;28.02;;;21.48;;
14052;SDS011;7101;51.600;7.310;2023-05-15T03:47:31;33.53;;;23.15;;
14052;SDS011;7101;51.600;7.310;2023-05-15T03:49:58;30.77;;;22.95;;
14052;SDS011;7101;51.600;7.310;2023-05-15T03:52:25;32.67;;;26.70;;
14052;SDS011;7101;51.600;7.310;2023-05-15T03:54:54;39.35;;;26.92;;
14052;SDS011;7101;51.600;7.310;2023-05-15T03:57:22;42.30;;;28.10;;
14052;SDS011;7101;51.600;7.310;2023-05-15T03:59:50;45.72;;;29.10;;
14052;SDS011;7101;51.600;7.310;2023-05-15T04:02:17;37.47;;;29.80;;
14052;SDS011;7101;51.600;7.310;2023-05-15T04:04:44;39.08;;;30.67;;
14052;SDS011;7101;51.600;7.310;2023-05-15T04:07:10;37.70;;;31.35;;
14052;SDS011;7101;51.600;7.310;2023-05-15T04:09:38;39.58;;;33.70;;
14052;SDS011;7101;51.600;7.310;2023-05-15T04:12:05;39.35;;;34.08;;
14052;SDS011;7101;51.600;7.310;2023-05-15T04:14:33;41.17;;;33.25;;
14052;SDS011;7101;51.600;7.310;2023-05-15T04:17:00;45.13;;;34.05;;
14052;SDS011;7101;51.600;7.310;2023-05-15T04:19:27;48.38;;;36.28;;
14052;SDS011;7101;51.600;7.310;2023-05-15T04:21:56;49.30;;;37.47;;
14052;SDS011;7101;51.600;7.310;2023-05-15T04:24:23;49.42;;;38.05;;
14052;SDS011;7101;51.600;7.310;2023-05-15T04:26:50;48.35;;;37.58;;
14052;SDS011;7101;51.600;7.310;2023-05-15T04:29:17;44.75;;;36.25;;
14052;SDS011;7101;51.600;7.310;2023-05-15T04:31:45;47.80;;;36.65;;
14052;SDS011;7101;51.600;7.310;2023-05-15T04:34:12;47.42;;;38.08;;
14052;SDS011;7101;51.600;7.310;2023-05-15T04:36:38;45.25;;;36.53;;
14052;SDS011;7101;51.600;7.310;2023-05-15T04:39:05;45.60;;;36.92;;
14052;SDS011;7101;51.600;7.310;2023-05-15T04:41:33;43.30;;;36.55;;
14052;SDS011;7101;51.600;7.310;2023-05-15T04:44:00;41.63;;;34.17;;
14052;SDS011;7101;51.600;7.310;2023-05-15T04:46:27;44.72;;;35.42;;
14052;SDS011;7101;51.600;7.310;2023-05-15T04:48:56;45.97;;;34.63;;
14052;SDS011;7101;51.600;7.310;2023-05-15T04:51:22;44.15;;;35.40;;
14052;SDS011;7101;51.600;7.310;2023-05-15T04:53:49;41.28;;;34.50;;
14052;SDS011;7101;51.600;7.310;2023-05-15T04:56:17;42.05;;;33.17;;
14052;SDS011;7101;51.600;7.310;2023-05-15T04:58:44;36.03;;;31.50;;
14052;SDS011;7101;51.600;7.310;2023-05-15T05:01:11;39.40;;;32.97;;
14052;SDS011;7101;51.600;7.310;2023-05-15T05:03:38;37.30;;;32.75;;
14052;SDS011;7101;51.600;7.310;2023-05-15T05:06:08;38.17;;;32.35;;
14052;SDS011;7101;51.600;7.310;2023-05-15T05:08:35;38.55;;;32.40;;
14052;SDS011;7101;51.600;7.310;2023-05-15T05:11:02;43.70;;;32.85;;
14052;SDS011;7101;51.600;7.310;2023-05-15T05:13:28;42.85;;;34.30;;
14052;SDS011;7101;51.600;7.310;2023-05-15T05:15:56;41.13;;;33.65;;
14052;SDS011;7101;51.600;7.310;2023-05-15T05:18:23;41.30;;;31.35;;
14052;SDS011;7101;51.600;7.310;2023-05-15T05:20:57;39.53;;;33.72;;
14052;SDS011;7101;51.600;7.310;2023-05-15T05:23:25;39.15;;;32.53;;
14052;SDS011;7101;51.600;7.310;2023-05-15T05:25:52;40.40;;;34.92;;
14052;SDS011;7101;51.600;7.310;2023-05-15T05:28:19;43.40;;;34.28;;
14052;SDS011;7101;51.600;7.310;2023-05-15T05:30:47;47.15;;;35.80;;
14052;SDS011;7101;51.600;7.310;2023-05-15T05:33:14;46.97;;;36.67;;
14052;SDS011;7101;51.600;7.310;2023-05-15T05:35:41;49.75;;;38.17;;
14052;SDS011;7101;51.600;7.310;2023-05-15T05:38:08;42.53;;;35.10;;
14052;SDS011;7101;51.600;7.310;2023-05-15T05:40:36;46.08;;;37.33;;
14052;SDS011;7101;51.600;7.310;2023-05-15T05:43:05;46.25;;;35.95;;
14052;SDS011;7101;51.600;7.310;2023-05-15T05:45:32;46.55;;;37.92;;
14052;SDS011;7101;51.600;7.310;2023-05-15T05:47:59;44.85;;;36.92;;
14052;SDS011;7101;51.600;7.310;2023-05-15T05:50:26;46.45;;;37.33;;
14052;SDS011;7101;51.600;7.310;2023-05-15T05:52:53;46.60;;;38.40;;
14052;SDS011;7101;51.600;7.310;2023-05-15T05:55:20;51.38;;;39.30;;
14052;SDS011;7101;51.600;7.310;2023-05-15T05:57:48;50.92;;;38.85;;
14052;SDS011;7101;51.600;7.310;2023-05-15T06:00:15;51.85;;;39.13;;
14052;SDS011;7101;51.600;7.310;2023-05-15T06:02:43;53.55;;;39.90;;
14052;SDS011;7101;51.600;7.310;2023-05-15T06:05:10;52.33;;;40.00;;
14052;SDS011;7101;51.600;7.310;2023-05-15T06:07:37;55.08;;;41.28;;
14052;SDS011;7101;51.600;7.310;2023-05-15T06:10:04;51.28;;;39.08;;
14052;SDS011;7101;51.600;7.310;2023-05-15T06:12:33;51.33;;;39.38;;
14052;SDS011;7101;51.600;7.310;2023-05-15T06:15:01;50.03;;;39.85;;
14052;SDS011;7101;51.600;7.310;2023-05-15T06:17:29;49.17;;;38.70;;
14052;SDS011;7101;51.600;7.310;2023-05-15T06:19:56;50.95;;;38.83;;
14052;SDS011;7101;51.600;7.310;2023-05-15T06:22:24;52.10;;;38.72;;
14052;SDS011;7101;51.600;7.310;2023-05-15T06:24:51;50.10;;;40.47;;
14052;SDS011;7101;51.600;7.310;2023-05-15T06:27:19;54.03;;;41.28;;
14052;SDS011;7101;51.600;7.310;2023-05-15T06:29:46;55.45;;;42.60;;
14052;SDS011;7101;51.600;7.310;2023-05-15T06:32:14;55.45;;;42.47;;
14052;SDS011;7101;51.600;7.310;2023-05-15T06:34:41;57.38;;;40.80;;
14052;SDS011;7101;51.600;7.310;2023-05-15T06:37:08;55.58;;;41.15;;
14052;SDS011;7101;51.600;7.310;2023-05-15T06:39:35;59.25;;;42.72;;
14052;SDS011;7101;51.600;7.310;2023-05-15T06:42:03;60.95;;;43.72;;
14052;SDS011;7101;51.600;7.310;2023-05-15T06:44:30;56.95;;;42.15;;
14052;SDS011;7101;51.600;7.310;2023-05-15T06:46:58;54.03;;;41.42;;
14052;SDS011;7101;51.600;7.310;2023-05-15T06:49:26;55.35;;;41.88;;
14052;SDS011;7101;51.600;7.310;2023-05-15T06:51:54;59.03;;;42.38;;
14052;SDS011;7101;51.600;7.310;2023-05-15T06:54:22;58.55;;;41.85;;
14052;SDS011;7101;51.600;7.310;2023-05-15T06:56:49;49.33;;;38.78;;
14052;SDS011;7101;51.600;7.310;2023-05-15T06:59:16;54.03;;;39.97;;
14052;SDS011;7101;51.600;7.310;2023-05-15T07:01:43;57.90;;;40.25;;
14052;SDS011;7101;51.600;7.310;2023-05-15T07:04:10;54.67;;;39.55;;
14052;SDS011;7101;51.600;7.310;2023-05-15T07:06:38;50.53;;;40.00;;
14052;SDS011;7101;51.600;7.310;2023-05-15T07:09:05;52.78;;;40.83;;
14052;SDS011;7101;51.600;7.310;2023-05-15T07:11:32;57.45;;;41.63;;
14052;SDS011;7101;51.600;7.310;2023-05-15T07:14:01;52.25;;;40.00;;
14052;SDS011;7101;51.600;7.310;2023-05-15T07:16:28;51.22;;;40.38;;
14052;SDS011;7101;51.600;7.310;2023-05-15T07:18:55;54.22;;;41.53;;
14052;SDS011;7101;51.600;7.310;2023-05-15T07:21:22;48.90;;;39.33;;
14052;SDS011;7101;51.600;7.310;2023-05-15T07:23:50;51.42;;;41.45;;
14052;SDS011;7101;51.600;7.310;2023-05-15T07:26:17;52.78;;;40.92;;
14052;SDS011;7101;51.600;7.310;2023-05-15T07:28:43;50.38;;;39.45;;
14052;SDS011;7101;51.600;7.310;2023-05-15T07:31:12;50.40;;;40.50;;
14052;SDS011;7101;51.600;7.310;2023-05-15T07:33:38;48.58;;;38.85;;
14052;SDS011;7101;51.600;7.310;2023-05-15T07:36:05;50.95;;;38.40;;
14052;SDS011;7101;51.600;7.310;2023-05-15T07:38:33;49.22;;;38.63;;
14052;SDS011;7101;51.600;7.310;2023-05-15T07:41:01;48.20;;;37.20;;
14052;SDS011;7101;51.600;7.310;2023-05-15T07:43:28;47.28;;;35.97;;
14052;SDS011;7101;51.600;7.310;2023-05-15T07:45:55;43.90;;;35.03;;
14052;SDS011;7101;51.600;7.310;2023-05-15T07:48:24;39.00;;;32.78;;
14052;SDS011;7101;51.600;7.310;2023-05-15T07:50:52;38.30;;;31.48;;
14052;SDS011;7101;51.600;7.310;2023-05-15T07:53:19;44.13;;;33.42;;
14052;SDS011;7101;51.600;7.310;2023-05-15T07:55:46;41.00;;;33.88;;
14052;SDS011;7101;51.600;7.310;2023-05-15T07:58:14;41.15;;;33.33;;
14052;SDS011;7101;51.600;7.310;2023-05-15T08:00:42;42.95;;;34.08;;
14052;SDS011;7101;51.600;7.310;2023-05-15T08:03:09;42.33;;;32.22;;
14052;SDS011;7101;51.600;7.310;2023-05-15T08:05:36;39.72;;;31.50;;
14052;SDS011;7101;51.600;7.310;2023-05-15T08:08:04;34.10;;;30.30;;
14052;SDS011;7101;51.600;7.310;2023-05-15T08:10:31;27.80;;;24.85;;
14052;SDS011;7101;51.600;7.310;2023-05-15T08:12:57;24.23;;;21.67;;
14052;SDS011;7101;51.600;7.310;2023-05-15T08:15:26;23.83;;;20.75;;
14052;SDS011;7101;51.600;7.310;2023-05-15T08:17:53;21.80;;;19.60;;
14052;SDS011;7101;51.600;7.310;2023-05-15T08:20:20;23.08;;;19.15;;
14052;SDS011;7101;51.600;7.310;2023-05-15T08:22:47;22.27;;;19.83;;
14052;SDS011;7101;51.600;7.310;2023-05-15T08:25:14;21.42;;;19.13;;
14052;SDS011;7101;51.600;7.310;2023-05-15T08:27:40;23.02;;;20.58;;
14052;SDS011;7101;51.600;7.310;2023-05-15T08:30:07;22.60;;;19.10;;
14052;SDS011;7101;51.600;7.310;2023-05-15T08:32:36;21.83;;;19.58;;
14052;SDS011;7101;51.600;7.310;2023-05-15T08:35:03;26.42;;;22.52;;
14052;SDS011;7101;51.600;7.310;2023-05-15T08:37:31;25.25;;;21.70;;
14052;SDS011;7101;51.600;7.310;2023-05-15T08:39:58;26.73;;;19.13;;
14052;SDS011;7101;51.600;7.310;2023-05-15T08:42:27;22.83;;;19.92;;
14052;SDS011;7101;51.600;7.310;2023-05-15T08:45:04;23.00;;;20.10;;
14052;SDS011;7101;51.600;7.310;2023-05-15T08:47:33;21.70;;;19.48;;
14052;SDS011;7101;51.600;7.310;2023-05-15T08:50:05;22.08;;;19.70;;
14052;SDS011;7101;51.600;7.310;2023-05-15T08:52:37;21.13;;;17.23;;
14052;SDS011;7101;51.600;7.310;2023-05-15T08:55:06;18.70;;;16.58;;
14052;SDS011;7101;51.600;7.310;2023-05-15T08:57:37;17.60;;;15.52;;
14052;SDS011;7101;51.600;7.310;2023-05-15T09:00:05;21.02;;;16.48;;
14052;SDS011;7101;51.600;7.310;2023-05-15T09:02:33;19.17;;;16.98;;
14052;SDS011;7101;51.600;7.310;2023-05-15T09:05:01;17.45;;;15.63;;
14052;SDS011;7101;51.600;7.310;2023-05-15T09:07:30;17.17;;;15.48;;
14052;SDS011;7101;51.600;7.310;2023-05-15T09:09:57;19.30;;;15.30;;
14052;SDS011;7101;51.600;7.310;2023-05-15T09:12:25;18.85;;;14.88;;
14052;SDS011;7101;51.600;7.310;2023-05-15T09:14:58;18.00;;;16.20;;
14052;SDS011;7101;51.600;7.310;2023-05-15T09:17:33;18.05;;;16.20;;
14052;SDS011;7101;51.600;7.310;2023-05-15T09:20:00;16.48;;;14.75;;
14052;SDS011;7101;51.600;7.310;2023-05-15T09:22:33;19.42;;;14.45;;
14052;SDS011;7101;51.600;7.310;2023-05-15T09:25:01;16.52;;;14.82;;
14052;SDS011;7101;51.600;7.310;2023-05-15T09:27:28;16.73;;;15.10;;
14052;SDS011;7101;51.600;7.310;2023-05-15T09:29:56;16.80;;;15.10;;
14052;SDS011;7101;51.600;7.310;2023-05-15T09:32:33;19.52;;;15.75;;
14052;SDS011;7101;51.600;7.310;2023-05-15T09:35:02;18.52;;;16.60;;
14052;SDS011;7101;51.600;7.310;2023-05-15T09:37:31;18.60;;;15.80;;
14052;SDS011;7101;51.600;7.310;2023-05-15T09:40:07;17.20;;;15.10;;
14052;SDS011;7101;51.600;7.310;2023-05-15T09:42:35;18.20;;;14.65;;
14052;SDS011;7101;51.600;7.310;2023-05-15T09:45:02;16.95;;;13.82;;
14052;SDS011;7101;51.600;7.310;2023-05-15T09:47:30;15.88;;;14.27;;
14052;SDS011;7101;51.600;7.310;2023-05-15T09:49:57;16.85;;;14.00;;
14052;SDS011;7101;51.600;7.310;2023-05-15T09:52:24;16.27;;;13.48;;
14052;SDS011;7101;51.600;7.310;2023-05-15T09:54:53;15.93;;;14.23;;
14052;SDS011;7101;51.600;7.310;2023-05-15T09:57:23;14.88;;;13.30;;
14052;SDS011;7101;51.600;7.310;2023-05-15T09:59:50;15.20;;;13.40;;
14052;SDS011;7101;51.600;7.310;2023-05-15T10:02:22;15.20;;;12.85;;
14052;SDS011;7101;51.600;7.310;2023-05-15T10:04:52;15.38;;;12.90;;
14052;SDS011;7101;51.600;7.310;2023-05-15T10:07:31;13.43;;;12.13;;
14052;SDS011;7101;51.600;7.310;2023-05-15T10:10:01;16.08;;;13.07;;
14052;SDS011;7101;51.600;7.310;2023-05-15T10:12:31;15.93;;;12.13;;
14052;SDS011;7101;51.600;7.310;2023-05-15T10:15:00;15.07;;;13.40;;
14052;SDS011;7101;51.600;7.310;2023-05-15T10:17:29;14.45;;;12.32;;
14052;SDS011;7101;51.600;7.310;2023-05-15T10:19:59;13.98;;;12.68;;
14052;SDS011;7101;51.600;7.310;2023-05-15T10:22:31;13.70;;;12.30;;
14052;SDS011;7101;51.600;7.310;2023-05-15T10:25:03;13.65;;;12.25;;
14052;SDS011;7101;51.600;7.310;2023-05-15T10:27:36;18.85;;;12.60;;
14052;SDS011;7101;51.600;7.310;2023-05-15T10:30:06;13.13;;;11.82;;
14052;SDS011;7101;51.600;7.310;2023-05-15T10:32:35;13.98;;;12.48;;
14052;SDS011;7101;51.600;7.310;2023-05-15T10:35:02;13.18;;;11.85;;
14052;SDS011;7101;51.600;7.310;2023-05-15T10:37:31;12.95;;;11.27;;
14052;SDS011;7101;51.600;7.310;2023-05-15T10:39:59;13.15;;;11.32;;
14052;SDS011;7101;51.600;7.310;2023-05-15T10:42:29;10.88;;;9.82;;
14052;SDS011;7101;51.600;7.310;2023-05-15T10:44:58;13.02;;;9.40;;
14052;SDS011;7101;51.600;7.310;2023-05-15T10:47:27;16.38;;;10.02;;
14052;SDS011;7101;51.600;7.310;2023-05-15T10:49:55;11.60;;;10.40;;
14052;SDS011;7101;51.600;7.310;2023-05-15T10:52:22;11.38;;;9.48;;
14052;SDS011;7101;51.600;7.310;2023-05-15T10:54:51;13.63;;;8.65;;
14052;SDS011;7101;51.600;7.310;2023-05-15T10:57:19;11.25;;;8.23;;
14052;SDS011;7101;51.600;7.310;2023-05-15T10:59:46;11.35;;;9.30;;
14052;SDS011;7101;51.600;7.310;2023-05-15T11:02:21;11.60;;;8.00;;
14052;SDS011;7101;51.600;7.310;2023-05-15T11:04:55;9.63;;;7.10;;
14052;SDS011;7101;51.600;7.310;2023-05-15T11:07:25;11.13;;;7.63;;
14052;SDS011;7101;51.600;7.310;2023-05-15T11:09:53;9.18;;;7.72;;
14052;SDS011;7101;51.600;7.310;2023-05-15T11:12:21;8.82;;;7.68;;
14052;SDS011;7101;51.600;7.310;2023-05-15T11:17:56;12.68;;;6.60;;
14052;SDS011;7101;51.600;7.310;2023-05-15T11:20:31;9.77;;;6.95;;
14052;SDS011;7101;51.600;7.310;2023-05-15T11:22:59;9.25;;;8.20;;
14052;SDS011;7101;51.600;7.310;2023-05-15T11:25:27;8.32;;;7.25;;
14052;SDS011;7101;51.600;7.310;2023-05-15T11:27:55;9.65;;;7.47;;
14052;SDS011;7101;51.600;7.310;2023-05-15T11:30:32;7.63;;;6.90;;
14052;SDS011;7101;51.600;7.310;2023-05-15T11:33:03;9.77;;;6.65;;
14052;SDS011;7101;51.600;7.310;2023-05-15T11:35:34;8.07;;;6.07;;
14052;SDS011;7101;51.600;7.310;2023-05-15T11:38:03;7.30;;;5.65;;
14052;SDS011;7101;51.600;7.310;2023-05-15T11:40:42;9.52;;;5.22;;
14052;SDS011;7101;51.600;7.310;2023-05-15T11:43:15;8.60;;;5.28;;
14052;SDS011;7101;51.600;7.310;2023-05-15T11:45:45;6.57;;;5.65;;
14052;SDS011;7101;51.600;7.310;2023-05-15T11:48:18;8.40;;;5.57;;
14052;SDS011;7101;51.600;7.310;2023-05-15T11:50:45;9.93;;;5.63;;
14052;SDS011;7101;51.600;7.310;2023-05-15T11:53:12;6.25;;;5.00;;
14052;SDS011;7101;51.600;7.310;2023-05-15T11:55:40;8.10;;;5.68;;
14052;SDS011;7101;51.600;7.310;2023-05-15T11:58:11;8.10;;;5.60;;
14052;SDS011;7101;51.600;7.310;2023-05-15T12:00:39;9.20;;;5.75;;
14052;SDS011;7101;51.600;7.310;2023-05-15T12:03:10;8.45;;;5.35;;
14052;SDS011;7101;51.600;7.310;2023-05-15T12:05:44;5.15;;;4.45;;
14052;SDS011;7101;51.600;7.310;2023-05-15T12:08:14;5.68;;;4.40;;
14052;SDS011;7101;51.600;7.310;2023-05-15T12:10:41;5.57;;;4.63;;
14052;SDS011;7101;51.600;7.310;2023-05-15T12:13:08;9.85;;;5.05;;
14052;SDS011;7101;51.600;7.310;2023-05-15T12:15:36;6.82;;;4.70;;
14052;SDS011;7101;51.600;7.310;2023-05-15T12:18:05;7.50;;;5.45;;
14052;SDS011;7101;51.600;7.310;2023-05-15T12:20:33;7.88;;;5.97;;
14052;SDS011;7101;51.600;7.310;2023-05-15T12:23:03;9.73;;;6.43;;
14052;SDS011;7101;51.600;7.310;2023-05-15T12:25:31;7.70;;;5.78;;
14052;SDS011;7101;51.600;7.310;2023-05-15T12:27:58;7.30;;;5.70;;
14052;SDS011;7101;51.600;7.310;2023-05-15T12:30:27;9.35;;;6.00;;
14052;SDS011;7101;51.600;7.310;2023-05-15T12:33:03;6.15;;;4.80;;
14052;SDS011;7101;51.600;7.310;2023-05-15T12:35:33;5.45;;;3.38;;
14052;SDS011;7101;51.600;7.310;2023-05-15T12:38:03;6.53;;;3.60;;
14052;SDS011;7101;51.600;7.310;2023-05-15T12:40:32;15.35;;;4.05;;
14052;SDS011;7101;51.600;7.310;2023-05-15T12:43:03;5.85;;;3.58;;
14052;SDS011;7101;51.600;7.310;2023-05-15T12:45:31;6.95;;;4.15;;
14052;SDS011;7101;51.600;7.310;2023-05-15T12:47:59;4.90;;;3.67;;
14052;SDS011;7101;51.600;7.310;2023-05-15T12:50:27;3.88;;;2.90;;
14052;SDS011;7101;51.600;7.310;2023-05-15T12:52:59;5.68;;;3.33;;
14052;SDS011;7101;51.600;7.310;2023-05-15T12:55:31;7.22;;;3.78;;
14052;SDS011;7101;51.600;7.310;2023-05-15T12:57:59;4.93;;;3.88;;
14052;SDS011;7101;51.600;7.310;2023-05-15T13:00:27;4.93;;;3.92;;
14052;SDS011;7101;51.600;7.310;2023-05-15T13:02:56;4.70;;;4.20;;
14052;SDS011;7101;51.600;7.310;2023-05-15T13:05:24;8.02;;;4.43;;
14052;SDS011;7101;51.600;7.310;2023-05-15T13:07:51;5.05;;;3.95;;
14052;SDS011;7101;51.600;7.310;2023-05-15T13:10:19;5.88;;;4.53;;
14052;SDS011;7101;51.600;7.310;2023-05-15T13:12:51;5.38;;;4.25;;
14052;SDS011;7101;51.600;7.310;2023-05-15T13:15:24;5.85;;;4.85;;
14052;SDS011;7101;51.600;7.310;2023-05-15T13:17:57;5.22;;;4.60;;
14052;SDS011;7101;51.600;7.310;2023-05-15T13:20:25;5.80;;;4.70;;
14052;SDS011;7101;51.600;7.310;2023-05-15T13:22:54;7.10;;;4.82;;
14052;SDS011;7101;51.600;7.310;2023-05-15T13:25:23;6.45;;;4.30;;
14052;SDS011;7101;51.600;7.310;2023-05-15T13:27:51;9.50;;;4.28;;
14052;SDS011;7101;51.600;7.310;2023-05-15T13:30:21;6.88;;;4.10;;
14052;SDS011;7101;51.600;7.310;2023-05-15T13:32:48;4.88;;;3.30;;
14052;SDS011;7101;51.600;7.310;2023-05-15T13:35:15;10.93;;;4.60;;
14052;SDS011;7101;51.600;7.310;2023-05-15T13:37:43;6.68;;;4.15;;
14052;SDS011;7101;51.600;7.310;2023-05-15T13:40:10;10.48;;;4.95;;
14052;SDS011;7101;51.600;7.310;2023-05-15T13:42:38;6.63;;;4.20;;
14052;SDS011;7101;51.600;7.310;2023-05-15T13:45:08;4.88;;;4.07;;
14052;SDS011;7101;51.600;7.310;2023-05-15T13:47:37;6.80;;;4.07;;
14052;SDS011;7101;51.600;7.310;2023-05-15T13:50:04;4.38;;;3.80;;
14052;SDS011;7101;51.600;7.310;2023-05-15T13:52:32;6.93;;;4.93;;
14052;SDS011;7101;51.600;7.310;2023-05-15T13:54:59;7.07;;;4.82;;
14052;SDS011;7101;51.600;7.310;2023-05-15T13:57:26;5.95;;;4.63;;
14052;SDS011;7101;51.600;7.310;2023-05-15T13:59:54;6.13;;;4.75;;
14052;SDS011;7101;51.600;7.310;2023-05-15T14:02:22;6.10;;;4.85;;
14052;SDS011;7101;51.600;7.310;2023-05-15T14:04:50;6.88;;;5.00;;
14052;SDS011;7101;51.600;7.310;2023-05-15T14:07:17;4.68;;;3.80;;
14052;SDS011;7101;51.600;7.310;2023-05-15T14:09:46;6.25;;;4.22;;
14052;SDS011;7101;51.600;7.310;2023-05-15T14:12:13;8.43;;;5.60;;
14052;SDS011;7101;51.600;7.310;2023-05-15T14:14:40;4.53;;;4.10;;
14052;SDS011;7101;51.600;7.310;2023-05-15T14:17:07;7.00;;;4.65;;
14052;SDS011;7101;51.600;7.310;2023-05-15T14:19:36;8.68;;;4.65;;
14052;SDS011;7101;51.600;7.310;2023-05-15T14:22:03;5.45;;;4.00;;
14052;SDS011;7101;51.600;7.310;2023-05-15T14:24:30;5.70;;;3.53;;
14052;SDS011;7101;51.600;7.310;2023-05-15T14:26:57;5.97;;;3.38;;
14052;SDS011;7101;51.600;7.310;2023-05-15T14:29:24;4.75;;;3.92;;
14052;SDS011;7101;51.600;7.310;2023-05-15T14:31:53;5.38;;;2.97;;
14052;SDS011;7101;51.600;7.310;2023-05-15T14:34:20;12.57;;;7.68;;
14052;SDS011;7101;51.600;7.310;2023-05-15T14:36:49;9.80;;;8.48;;
14052;SDS011;7101;51.600;7.310;2023-05-15T14:39:17;14.02;;;10.20;;
14052;SDS011;7101;51.600;7.310;2023-05-15T14:41:45;12.82;;;9.70;;
14052;SDS011;7101;51.600;7.310;2023-05-15T14:44:12;13.30;;;8.60;;
14052;SDS011;7101;51.600;7.310;2023-05-15T14:46:40;15.95;;;9.40;;
14052;SDS011;7101;51.600;7.310;2023-05-15T14:49:09;12.98;;;10.38;;
14052;SDS011;7101;51.600;7.310;2023-05-15T14:51:36;11.93;;;9.00;;
14052;SDS011;7101;51.600;7.310;2023-05-15T14:54:05;15.82;;;11.30;;